bureau de piste

METAR LFMD 152030Z AUTO VRB02KT CAVOK 26/15 Q1011 NOSIG

TAF LFMD 151400Z 1515/1615 16010KT CAVOK BECMG 1518/1520 VRB04KT BECMG 1606/1608 11010KT SCT020 BKN120 TEMPO 1608/1615 SHRA BKN014 SCT040TCU TEMPO 1610/1615 VRB15G30KT 4000 TSRA SCT040CB PROB30 TEMPO 1610/1615 VRB20G50KT 2000 TSGR OVC012 BKN030CB

INFORMATION ADDS - 2045 UTC 15 July 2018

Plus d’information sur les terrains : LFMD et VALBERG

Les commentaires sont clos.